Pilot Butte, Canada
Current Conditions -  °F | °C
As of 9:00 AM on Wednesday 22 Oct 2014 (Local Time) from CYQR Reporting Station
Few Clouds Few Clouds  
Wind Chill: 42°   Ceiling: Unl
Heat Index: 46°   Visibility: 15mi
Dew Point: 45°   Wind: 9mph
Humidity: 93%   Direction: 260°W
Pressure: 29.67"   Gusts: NA
Location:  50.48°N, 104.42°W
Report Text: CYQR 221500Z 26008KT 15SM FEW090 FEW150 08/07 A2967 RMK AC1AC1 SLP059
Loading
Personal Weather Stations






























Interactive Weather Map New forecast layout! Learn more

10-Day Weather Forecast

Advertisements
Track Severe Weather on mobile